createdAt,value
2022-11-01T00:04:22.110Z,28.73
2022-11-01T00:09:26.538Z,31.70
2022-11-01T00:14:29.759Z,32.77
2022-11-01T00:19:33.048Z,31.05
2022-11-01T00:24:37.596Z,33.65
2022-11-01T00:29:40.819Z,31.40
2022-11-01T00:34:43.869Z,31.27
2022-11-01T00:39:48.279Z,31.75
2022-11-01T00:44:51.471Z,30.60
2022-11-01T00:49:54.691Z,30.95
2022-11-01T00:54:59.349Z,30.27
2022-11-01T01:00:02.661Z,31.30
2022-11-01T01:05:07.198Z,33.03
2022-11-01T01:10:11.643Z,31.83
2022-11-01T01:15:15.171Z,33.50
2022-11-01T01:20:18.671Z,30.13
2022-11-01T01:25:23.635Z,32.08
2022-11-01T01:30:26.763Z,32.85
2022-11-01T01:35:29.927Z,32.28
2022-11-01T01:40:35.127Z,30.95
2022-11-01T01:50:47.736Z,30.10
2022-11-01T01:55:57.645Z,31.05
2022-11-01T02:01:01.283Z,32.08
2022-11-01T02:06:09.215Z,34.28
2022-11-01T02:11:15.312Z,33.90
2022-11-01T02:16:37.866Z,32.70
2022-11-01T02:21:51.287Z,32.78
2022-11-01T02:27:10.500Z,34.17
2022-11-01T02:32:22.477Z,35.97
2022-11-01T02:37:30.010Z,34.72
2022-11-01T02:42:37.482Z,33.67
2022-11-01T02:47:42.253Z,36.05
2022-11-01T02:52:46.342Z,35.67
2022-11-01T02:57:49.855Z,34.85
2022-11-01T03:03:00.493Z,36.35
2022-11-01T03:08:06.550Z,32.70
2022-11-01T03:13:29.890Z,33.15
2022-11-01T03:18:38.720Z,33.38
2022-11-01T03:23:47.362Z,30.90
2022-11-01T03:34:10.899Z,35.85
2022-11-01T03:39:18.462Z,38.33
2022-11-01T03:44:22.282Z,40.60
2022-11-01T03:49:26.749Z,39.88
2022-11-01T03:54:31.667Z,42.90
2022-11-01T03:59:34.871Z,37.80
2022-11-01T04:04:39.601Z,40.63
2022-11-01T04:09:43.043Z,38.03
2022-11-01T04:15:05.487Z,34.90
2022-11-01T04:20:29.137Z,35.50
2022-11-01T04:25:33.780Z,32.88
2022-11-01T04:30:37.022Z,36.13
2022-11-01T04:35:42.090Z,33.95
2022-11-01T04:45:54.655Z,36.38
2022-11-01T04:51:02.532Z,34.85
2022-11-01T04:56:08.879Z,34.78
2022-11-01T05:01:12.348Z,30.45
2022-11-01T05:06:17.273Z,30.52
2022-11-01T05:11:25.374Z,30.52
2022-11-01T05:16:28.907Z,35.45
2022-11-01T05:21:33.357Z,33.05
2022-11-01T05:26:36.905Z,38.05
2022-11-01T05:31:40.637Z,38.25
2022-11-01T05:36:45.131Z,34.90
2022-11-01T05:41:48.569Z,36.53
2022-11-01T05:46:51.618Z,36.28
2022-11-01T05:59:28.535Z,36.43
2022-11-01T06:04:31.704Z,37.80
2022-11-01T06:09:35.035Z,37.53
2022-11-01T06:14:40.037Z,40.50
2022-11-01T06:19:43.119Z,42.97
2022-11-01T06:24:46.444Z,38.88
2022-11-01T06:29:51.037Z,34.28
2022-11-01T06:41:37.843Z,35.22
2022-11-01T06:46:42.318Z,38.15
2022-11-01T06:51:46.047Z,35.75
2022-11-01T06:56:49.439Z,37.13
2022-11-01T07:01:54.758Z,37.05
2022-11-01T07:06:59.671Z,38.30
2022-11-01T07:12:12.166Z,35.88
2022-11-01T07:17:23.135Z,30.77
2022-11-01T07:22:27.488Z,34.33
2022-11-01T07:27:30.929Z,33.95
2022-11-01T07:32:39.746Z,31.50
2022-11-01T07:37:43.837Z,31.00
2022-11-01T07:42:47.638Z,31.75
2022-11-01T09:02:57.849Z,25.23
2022-11-01T09:08:05.487Z,24.35
2022-11-01T09:13:09.199Z,24.77
2022-11-01T09:18:13.876Z,22.90
2022-11-01T09:23:17.129Z,23.77
2022-11-01T09:28:20.437Z,20.65
2022-11-01T09:33:25.133Z,19.33
2022-11-01T09:38:29.074Z,16.48
2022-11-01T09:43:35.728Z,14.90
2022-11-01T10:04:05.964Z,10.23
2022-11-01T10:09:20.586Z,11.57
2022-11-01T10:14:40.000Z,11.43
2022-11-01T10:27:22.639Z,10.52
2022-11-01T10:32:32.872Z,11.45
2022-11-01T10:37:51.868Z,10.05
2022-11-01T10:43:13.544Z,10.13
2022-11-01T10:48:27.323Z,10.23
2022-11-01T10:53:35.496Z,9.50
2022-11-01T10:58:47.329Z,10.48
2022-11-01T11:03:52.068Z,9.80
2022-11-01T11:08:56.634Z,10.18
2022-11-01T11:14:05.605Z,9.40
2022-11-01T11:19:22.164Z,11.27
2022-11-01T11:24:30.608Z,9.75
2022-11-01T11:29:41.314Z,10.43
2022-11-01T11:34:52.933Z,10.70
2022-11-01T11:40:19.555Z,9.25
2022-11-01T12:18:26.548Z,7.55
2022-11-01T12:23:35.058Z,7.50
2022-11-01T12:28:43.143Z,7.72
2022-11-01T12:33:52.704Z,7.55
2022-11-01T12:39:00.617Z,6.57
2022-11-01T12:44:13.390Z,6.57
2022-11-01T12:49:32.615Z,7.22
2022-11-01T12:54:41.347Z,5.82
2022-11-01T12:59:46.538Z,4.78
2022-11-01T13:04:58.869Z,5.45
2022-11-01T13:10:10.864Z,4.30
2022-11-01T13:15:22.854Z,4.85
2022-11-01T13:20:37.883Z,4.18
2022-11-01T13:25:47.509Z,4.50
2022-11-01T13:30:59.235Z,3.90
2022-11-01T13:36:11.359Z,4.32
2022-11-01T13:41:21.057Z,4.30
2022-11-01T13:46:46.228Z,4.75
2022-11-01T13:51:56.847Z,4.38
2022-11-01T13:57:09.662Z,5.32
2022-11-01T14:02:49.153Z,4.38
2022-11-01T14:08:14.056Z,4.47
2022-11-01T14:13:29.890Z,4.50
2022-11-01T14:19:09.670Z,5.35
2022-11-01T14:24:34.563Z,4.15
2022-11-01T14:29:38.898Z,6.03
2022-11-01T14:34:45.837Z,5.32
2022-11-01T14:40:04.515Z,4.35
2022-11-01T14:45:22.714Z,4.35
2022-11-01T14:58:24.221Z,4.70
2022-11-01T15:03:27.710Z,4.50
2022-11-01T15:08:37.535Z,4.82
2022-11-01T15:13:45.606Z,5.45
2022-11-01T15:18:53.080Z,5.57
2022-11-01T15:23:57.460Z,6.07
2022-11-01T15:29:04.810Z,29.83
2022-11-01T15:34:22.226Z,9.52
2022-11-01T15:39:28.986Z,5.55
2022-11-01T15:44:33.997Z,5.63
2022-11-01T15:49:45.508Z,5.75
2022-11-01T15:54:55.420Z,4.57
2022-11-01T16:00:07.033Z,5.20
2022-11-01T16:05:20.386Z,5.88
2022-11-01T16:10:26.595Z,4.95
2022-11-01T16:15:33.140Z,6.57
2022-11-01T16:20:40.886Z,7.03
2022-11-01T16:25:44.135Z,6.47
2022-11-01T16:30:50.051Z,6.07
2022-11-01T16:35:55.449Z,6.55
2022-11-01T16:46:05.263Z,6.13
2022-11-01T16:51:09.789Z,6.20
2022-11-01T16:56:35.599Z,7.00
2022-11-01T17:01:41.448Z,6.55
2022-11-01T17:06:45.848Z,6.90
2022-11-01T17:11:51.922Z,8.20
2022-11-01T17:16:56.867Z,8.68
2022-11-01T17:22:04.101Z,8.25
2022-11-01T17:27:08.895Z,9.23
2022-11-01T17:32:13.965Z,9.23
2022-11-01T17:37:17.644Z,8.30
2022-11-01T17:42:21.004Z,7.65
2022-11-01T17:47:26.236Z,8.85
2022-11-01T17:52:30.174Z,8.98
2022-11-01T17:57:34.509Z,8.40
2022-11-01T18:02:39.343Z,8.88
2022-11-01T18:07:44.605Z,8.50
2022-11-01T18:12:59.664Z,7.28
2022-11-01T18:18:23.066Z,8.07
2022-11-01T18:23:28.209Z,7.03
2022-11-01T18:28:35.017Z,6.72
2022-11-01T18:33:42.960Z,7.38
2022-11-01T18:38:53.510Z,7.15
2022-11-01T18:43:57.035Z,8.32
2022-11-01T18:49:06.946Z,9.43
2022-11-01T18:54:33.336Z,9.80
2022-11-01T18:59:39.221Z,9.15
2022-11-01T19:04:44.629Z,8.52
2022-11-01T19:09:53.415Z,9.95
2022-11-01T19:15:03.032Z,9.18
2022-11-01T19:20:21.211Z,8.57
2022-11-01T19:25:27.877Z,8.55
2022-11-01T19:30:33.054Z,10.18
2022-11-01T19:35:38.801Z,9.85
2022-11-01T19:40:44.128Z,9.57
2022-11-01T19:45:50.483Z,9.75
2022-11-01T19:50:55.489Z,9.77
2022-11-01T19:56:00.335Z,10.05
2022-11-01T20:01:40.708Z,9.50
2022-11-01T20:06:49.512Z,9.23
2022-11-01T20:11:53.608Z,9.30
2022-11-01T20:16:57.663Z,11.20
2022-11-01T20:22:03.286Z,9.88
2022-11-01T20:27:07.592Z,8.73
2022-11-01T20:32:11.739Z,8.93
2022-11-01T20:37:28.396Z,8.93
2022-11-01T20:42:32.420Z,8.98
2022-11-01T20:47:35.731Z,10.85
2022-11-01T20:52:40.488Z,9.93
2022-11-01T20:57:44.685Z,10.73
2022-11-01T21:02:49.456Z,10.60
2022-11-01T21:07:59.651Z,9.80
2022-11-01T21:13:20.509Z,11.48
2022-11-01T21:18:39.367Z,10.50
2022-11-01T21:23:44.723Z,10.80
2022-11-01T21:28:49.994Z,10.50
2022-11-01T21:39:00.029Z,11.15
2022-11-01T21:44:20.065Z,11.38
2022-11-01T21:49:29.028Z,10.65
2022-11-01T21:54:35.320Z,10.98
2022-11-01T21:59:39.201Z,10.23
2022-11-01T22:04:44.407Z,10.95
2022-11-01T22:09:49.819Z,10.77
2022-11-01T22:14:53.829Z,9.93
2022-11-01T22:19:57.576Z,9.65
2022-11-01T22:25:02.575Z,11.00
2022-11-01T22:30:08.271Z,10.20
2022-11-01T22:35:11.714Z,11.10
2022-11-01T22:40:18.844Z,11.02
2022-11-01T22:45:22.393Z,9.45
2022-11-01T22:50:28.495Z,9.38
2022-11-01T22:55:42.811Z,9.65
2022-11-01T23:00:46.706Z,10.30
2022-11-01T23:05:52.352Z,10.07
2022-11-01T23:10:57.478Z,9.40
2022-11-01T23:16:02.766Z,9.95
2022-11-01T23:21:08.172Z,10.77
2022-11-01T23:26:14.046Z,9.93
2022-11-01T23:31:19.013Z,10.50
2022-11-01T23:36:26.599Z,10.32
2022-11-01T23:41:34.643Z,8.73
2022-11-01T23:46:38.697Z,9.27
2022-11-01T23:51:42.340Z,9.68
2022-11-01T23:56:47.082Z,9.23
